createdAt,value
2022-11-26T00:00:43.986Z,96.43
2022-11-26T00:01:44.074Z,96.64
2022-11-26T00:02:44.196Z,96.64
2022-11-26T00:03:44.030Z,96.53
2022-11-26T00:04:43.943Z,96.43
2022-11-26T00:05:43.930Z,96.59
2022-11-26T00:06:43.925Z,96.64
2022-11-26T00:07:44.021Z,96.48
2022-11-26T00:08:43.909Z,96.73
2022-11-26T00:09:43.891Z,96.59
2022-11-26T00:10:43.922Z,96.33
2022-11-26T00:11:43.865Z,96.48
2022-11-26T00:12:43.861Z,96.28
2022-11-26T00:13:43.851Z,96.53
2022-11-26T00:14:43.833Z,96.33
2022-11-26T00:15:43.820Z,96.59
2022-11-26T00:16:43.932Z,96.73
2022-11-26T00:17:43.801Z,96.59
2022-11-26T00:18:43.801Z,96.48
2022-11-26T00:19:43.781Z,96.48
2022-11-26T00:20:43.766Z,96.59
2022-11-26T00:21:43.804Z,96.39
2022-11-26T00:22:43.744Z,95.97
2022-11-26T00:23:43.760Z,97.20
2022-11-26T00:24:43.723Z,95.97
2022-11-26T00:25:43.723Z,96.48
2022-11-26T00:26:43.700Z,96.39
2022-11-26T00:27:43.690Z,96.39
2022-11-26T00:28:43.697Z,96.39
2022-11-26T00:29:43.671Z,96.64
2022-11-26T00:30:43.660Z,96.18
2022-11-26T00:31:43.725Z,96.08
2022-11-26T00:32:43.636Z,96.22
2022-11-26T00:33:43.637Z,96.33
2022-11-26T00:34:43.616Z,96.22
2022-11-26T00:35:43.607Z,96.08
2022-11-26T00:36:43.593Z,96.43
2022-11-26T00:37:43.581Z,96.18
2022-11-26T00:38:43.595Z,96.39
2022-11-26T00:39:43.577Z,96.18
2022-11-26T00:40:43.557Z,96.22
2022-11-26T00:41:43.549Z,96.22
2022-11-26T00:42:43.531Z,96.28
2022-11-26T00:43:43.539Z,96.12
2022-11-26T00:44:43.506Z,96.12
2022-11-26T00:45:43.537Z,95.97
2022-11-26T00:46:43.493Z,95.97
2022-11-26T00:47:43.492Z,96.18
2022-11-26T00:48:43.475Z,96.02
2022-11-26T00:49:43.449Z,96.12
2022-11-26T00:50:43.446Z,96.02
2022-11-26T00:51:43.438Z,95.97
2022-11-26T00:52:43.424Z,96.12
2022-11-26T00:53:43.414Z,96.02
2022-11-26T00:54:43.398Z,96.02
2022-11-26T00:55:43.402Z,96.02
2022-11-26T00:56:43.377Z,96.02
2022-11-26T00:57:43.362Z,96.12
2022-11-26T00:58:43.363Z,96.33
2022-11-26T00:59:43.345Z,96.28
2022-11-26T01:00:43.340Z,96.22
2022-11-26T01:01:43.322Z,96.02
2022-11-26T01:02:43.386Z,96.12
2022-11-26T01:03:43.311Z,96.02
2022-11-26T01:04:43.288Z,96.33
2022-11-26T01:05:43.274Z,96.02
2022-11-26T01:06:43.264Z,96.12
2022-11-26T01:07:43.372Z,96.12
2022-11-26T01:08:43.257Z,96.02
2022-11-26T01:09:43.231Z,96.12
2022-11-26T01:10:43.221Z,95.71
2022-11-26T01:11:43.232Z,95.92
2022-11-26T01:12:43.200Z,96.33
2022-11-26T01:13:43.201Z,96.02
2022-11-26T01:14:43.204Z,96.02
2022-11-26T01:15:43.168Z,96.02
2022-11-26T01:16:43.262Z,95.92
2022-11-26T01:17:43.145Z,96.28
2022-11-26T01:18:43.150Z,96.12
2022-11-26T01:19:43.124Z,96.33
2022-11-26T01:20:43.111Z,96.18
2022-11-26T01:21:43.104Z,96.22
2022-11-26T01:22:43.091Z,96.43
2022-11-26T01:23:43.087Z,96.22
2022-11-26T01:24:43.076Z,96.33
2022-11-26T01:25:43.058Z,96.43
2022-11-26T01:26:43.046Z,96.12
2022-11-26T01:27:43.050Z,96.12
2022-11-26T01:28:43.026Z,96.22
2022-11-26T01:29:43.022Z,96.22
2022-11-26T01:30:43.006Z,96.22
2022-11-26T01:31:43.058Z,96.28
2022-11-26T01:32:42.992Z,96.43
2022-11-26T01:33:42.972Z,96.43
2022-11-26T01:34:42.970Z,96.43
2022-11-26T01:35:42.951Z,95.92
2022-11-26T01:36:42.938Z,96.64
2022-11-26T01:37:42.932Z,96.12
2022-11-26T01:38:42.920Z,95.92
2022-11-26T01:39:42.917Z,96.48
2022-11-26T01:40:42.896Z,96.53
2022-11-26T01:41:42.881Z,96.53
2022-11-26T01:42:42.891Z,96.43
2022-11-26T01:43:42.878Z,96.39
2022-11-26T01:44:42.863Z,96.48
2022-11-26T01:45:42.953Z,96.53
2022-11-26T01:46:42.849Z,96.48
2022-11-26T01:47:42.817Z,96.48
2022-11-26T01:48:42.808Z,96.43
2022-11-26T01:49:42.808Z,96.39
2022-11-26T01:50:42.785Z,96.43
2022-11-26T01:51:42.772Z,96.39
2022-11-26T01:52:42.766Z,96.39
2022-11-26T01:53:42.752Z,96.59
2022-11-26T01:54:42.756Z,95.87
2022-11-26T01:55:42.735Z,96.59
2022-11-26T01:56:42.724Z,96.43
2022-11-26T01:57:42.716Z,95.87
2022-11-26T01:58:42.704Z,96.39
2022-11-26T01:59:42.719Z,96.59
2022-11-26T02:00:42.790Z,95.87
2022-11-26T02:01:42.785Z,96.39
2022-11-26T02:02:42.759Z,96.39
2022-11-26T02:03:42.644Z,96.39
2022-11-26T02:04:42.645Z,96.59
2022-11-26T02:05:42.622Z,96.39
2022-11-26T02:06:42.613Z,96.39
2022-11-26T02:07:42.706Z,95.97
2022-11-26T02:08:42.592Z,96.44
2022-11-26T02:09:42.585Z,96.59
2022-11-26T02:10:42.566Z,96.48
2022-11-26T02:11:42.558Z,96.59
2022-11-26T02:12:42.545Z,95.97
2022-11-26T02:13:42.537Z,96.39
2022-11-26T02:14:42.544Z,96.34
2022-11-26T02:15:42.530Z,95.97
2022-11-26T02:16:42.604Z,95.97
2022-11-26T02:17:42.606Z,96.39
2022-11-26T02:18:42.480Z,96.23
2022-11-26T02:19:42.478Z,96.14
2022-11-26T02:20:42.463Z,96.28
2022-11-26T02:21:42.446Z,96.08
2022-11-26T02:22:42.441Z,96.14
2022-11-26T02:23:42.425Z,96.18
2022-11-26T02:24:42.426Z,96.18
2022-11-26T02:25:42.404Z,96.28
2022-11-26T02:26:42.394Z,96.39
2022-11-26T02:27:42.383Z,96.14
2022-11-26T02:28:42.375Z,96.23
2022-11-26T02:29:42.373Z,96.18
2022-11-26T02:30:42.351Z,96.08
2022-11-26T02:31:42.417Z,96.28
2022-11-26T02:32:42.336Z,96.18
2022-11-26T02:33:42.316Z,96.18
2022-11-26T02:34:42.564Z,96.14
2022-11-26T02:35:42.300Z,96.18
2022-11-26T02:36:42.287Z,96.23
2022-11-26T02:37:42.272Z,96.39
2022-11-26T02:38:42.263Z,96.28
2022-11-26T02:39:42.262Z,96.34
2022-11-26T02:40:42.240Z,95.97
2022-11-26T02:41:42.228Z,96.59
2022-11-26T02:42:42.225Z,95.97
2022-11-26T02:43:42.212Z,96.39
2022-11-26T02:44:42.208Z,96.39
2022-11-26T02:45:42.225Z,96.48
2022-11-26T02:46:42.177Z,96.28
2022-11-26T02:47:42.181Z,96.39
2022-11-26T02:48:42.157Z,96.28
2022-11-26T02:49:42.150Z,96.48
2022-11-26T02:50:42.131Z,96.48
2022-11-26T02:51:42.119Z,96.28
2022-11-26T02:52:42.115Z,96.08
2022-11-26T02:53:42.097Z,96.18
2022-11-26T02:54:42.098Z,96.08
2022-11-26T02:55:42.075Z,96.08
2022-11-26T02:56:42.065Z,96.28
2022-11-26T02:57:42.054Z,96.08
2022-11-26T02:58:42.045Z,96.28
2022-11-26T02:59:42.045Z,96.59
2022-11-26T03:00:42.095Z,96.34
2022-11-26T03:01:42.029Z,96.18
2022-11-26T03:02:42.000Z,96.39
2022-11-26T03:03:42.045Z,96.18
2022-11-26T03:04:41.987Z,96.34
2022-11-26T03:05:41.965Z,96.39
2022-11-26T03:06:41.959Z,96.18
2022-11-26T03:07:42.043Z,96.18
2022-11-26T03:08:41.950Z,96.48
2022-11-26T03:09:41.938Z,96.44
2022-11-26T03:10:41.916Z,96.39
2022-11-26T03:11:41.932Z,96.48
2022-11-26T03:12:41.890Z,96.55
2022-11-26T03:13:41.877Z,96.48
2022-11-26T03:14:41.885Z,96.59
2022-11-26T03:15:41.863Z,96.59
2022-11-26T03:16:41.918Z,96.55
2022-11-26T03:17:41.835Z,96.34
2022-11-26T03:18:41.825Z,96.59
2022-11-26T03:19:41.882Z,96.69
2022-11-26T03:20:41.802Z,96.55
2022-11-26T03:21:41.789Z,96.65
2022-11-26T03:22:41.781Z,96.44
2022-11-26T03:23:41.772Z,96.65
2022-11-26T03:24:41.766Z,96.34
2022-11-26T03:25:41.749Z,96.34
2022-11-26T03:26:41.743Z,96.44
2022-11-26T03:27:41.724Z,96.44
2022-11-26T03:28:41.718Z,96.55
2022-11-26T03:29:41.723Z,96.39
2022-11-26T03:30:41.698Z,96.55
2022-11-26T03:31:41.802Z,96.55
2022-11-26T03:32:41.673Z,96.69
2022-11-26T03:33:41.662Z,96.59
2022-11-26T03:34:41.658Z,96.34
2022-11-26T03:35:41.657Z,96.44
2022-11-26T03:36:41.631Z,96.55
2022-11-26T03:37:41.616Z,96.44
2022-11-26T03:38:41.609Z,96.85
2022-11-26T03:39:41.602Z,96.55
2022-11-26T03:40:41.597Z,96.65
2022-11-26T03:41:41.573Z,96.95
2022-11-26T03:42:41.573Z,96.65
2022-11-26T03:43:41.551Z,96.85
2022-11-26T03:44:41.552Z,96.85
2022-11-26T03:45:41.617Z,96.75
2022-11-26T03:46:41.521Z,96.75
2022-11-26T03:47:41.512Z,96.85
2022-11-26T03:48:41.500Z,96.85
2022-11-26T03:49:41.496Z,96.55
2022-11-26T03:50:41.473Z,96.55
2022-11-26T03:51:41.489Z,96.34
2022-11-26T03:52:41.465Z,96.69
2022-11-26T03:53:41.440Z,96.34
2022-11-26T03:54:41.440Z,96.55
2022-11-26T03:55:41.419Z,96.34
2022-11-26T03:56:41.409Z,96.65
2022-11-26T03:57:41.400Z,96.75
2022-11-26T03:58:41.388Z,96.85
2022-11-26T03:59:41.389Z,96.34
2022-11-26T04:00:41.367Z,96.44
2022-11-26T04:01:41.462Z,96.44
2022-11-26T04:02:41.442Z,96.44
2022-11-26T04:03:41.330Z,96.85
2022-11-26T04:04:41.379Z,97.06
2022-11-26T04:05:41.319Z,96.34
2022-11-26T04:06:41.306Z,96.95
2022-11-26T04:07:41.486Z,96.44
2022-11-26T04:08:41.275Z,96.95
2022-11-26T04:09:41.271Z,96.34
2022-11-26T04:10:41.262Z,96.55
2022-11-26T04:11:41.245Z,96.95
2022-11-26T04:12:41.234Z,97.06
2022-11-26T04:13:41.228Z,96.55
2022-11-26T04:14:41.655Z,96.65
2022-11-26T04:15:41.212Z,96.65
2022-11-26T04:16:41.267Z,96.75
2022-11-26T04:17:41.229Z,96.34
2022-11-26T04:18:41.169Z,96.85
2022-11-26T04:19:41.158Z,96.55
2022-11-26T04:20:41.156Z,97.06
2022-11-26T04:21:41.136Z,96.65
2022-11-26T04:22:41.126Z,96.65
2022-11-26T04:23:41.133Z,96.65
2022-11-26T04:24:41.324Z,96.55
2022-11-26T04:25:41.102Z,96.95
2022-11-26T04:26:41.098Z,96.55
2022-11-26T04:27:41.071Z,96.65
2022-11-26T04:28:41.066Z,96.65
2022-11-26T04:29:41.052Z,96.65
2022-11-26T04:30:41.047Z,96.85
2022-11-26T04:31:41.120Z,96.65
2022-11-26T04:32:41.018Z,96.85
2022-11-26T04:33:41.005Z,96.85
2022-11-26T04:34:41.208Z,96.65
2022-11-26T04:35:41.011Z,96.75
2022-11-26T04:36:40.969Z,96.75
2022-11-26T04:37:40.962Z,96.65
2022-11-26T04:38:40.949Z,96.85
2022-11-26T04:39:40.972Z,96.55
2022-11-26T04:40:40.943Z,96.75
2022-11-26T04:41:40.916Z,96.95
2022-11-26T04:42:40.903Z,96.95
2022-11-26T04:43:40.896Z,97.06
2022-11-26T04:44:40.923Z,96.85
2022-11-26T04:45:40.880Z,96.85
2022-11-26T04:46:40.860Z,96.75
2022-11-26T04:47:43.156Z,97.27
2022-11-26T04:48:40.838Z,96.85
2022-11-26T04:49:40.838Z,96.95
2022-11-26T04:50:40.830Z,96.85
2022-11-26T04:51:40.815Z,97.27
2022-11-26T04:52:40.798Z,96.95
2022-11-26T04:53:40.791Z,97.16
2022-11-26T04:54:41.030Z,97.06
2022-11-26T04:55:40.791Z,97.06
2022-11-26T04:56:40.751Z,97.16
2022-11-26T04:57:40.742Z,96.95
2022-11-26T04:58:40.730Z,97.47
2022-11-26T04:59:40.727Z,96.75
2022-11-26T05:00:40.797Z,96.95
2022-11-26T05:01:40.792Z,97.16
2022-11-26T05:02:40.749Z,96.91
2022-11-26T05:03:40.676Z,97.67
2022-11-26T05:04:40.958Z,96.95
2022-11-26T05:05:40.664Z,97.16
2022-11-26T05:06:40.648Z,96.95
2022-11-26T05:07:40.731Z,97.06
2022-11-26T05:08:40.618Z,97.12
2022-11-26T05:09:40.610Z,96.95
2022-11-26T05:10:40.608Z,96.91
2022-11-26T05:11:40.607Z,96.95
2022-11-26T05:12:40.597Z,96.95
2022-11-26T05:13:40.566Z,96.55
2022-11-26T05:14:40.904Z,96.55
2022-11-26T05:15:40.552Z,96.95
2022-11-26T05:16:40.559Z,96.55
2022-11-26T05:17:40.521Z,96.85
2022-11-26T05:18:40.511Z,97.16
2022-11-26T05:19:40.506Z,96.34
2022-11-26T05:20:40.497Z,96.34
2022-11-26T05:21:40.478Z,96.95
2022-11-26T05:22:40.469Z,96.44
2022-11-26T05:23:40.459Z,96.55
2022-11-26T05:24:40.676Z,96.44
2022-11-26T05:25:40.455Z,96.34
2022-11-26T05:26:40.429Z,96.23
2022-11-26T05:27:40.431Z,96.75
2022-11-26T05:28:40.404Z,96.65
2022-11-26T05:29:40.393Z,96.44
2022-11-26T05:30:40.389Z,96.34
2022-11-26T05:31:40.415Z,96.55
2022-11-26T05:32:40.357Z,96.55
2022-11-26T05:33:40.347Z,96.44
2022-11-26T05:34:40.746Z,96.03
2022-11-26T05:36:50.211Z,96.03
2022-11-26T05:37:50.187Z,96.23
2022-11-26T05:38:50.176Z,96.03
2022-11-26T05:39:50.164Z,96.23
2022-11-26T05:40:50.163Z,96.03
2022-11-26T05:41:50.146Z,96.23
2022-11-26T05:42:50.151Z,96.14
2022-11-26T05:43:50.126Z,96.44
2022-11-26T05:44:50.108Z,96.44
2022-11-26T05:45:50.229Z,95.83
2022-11-26T05:46:50.089Z,95.93
2022-11-26T05:47:50.079Z,96.55
2022-11-26T05:48:50.065Z,95.83
2022-11-26T05:49:50.055Z,95.83
2022-11-26T05:50:54.390Z,95.83
2022-11-26T05:51:50.034Z,96.44
2022-11-26T05:52:50.021Z,95.93
2022-11-26T05:53:50.014Z,96.14
2022-11-26T05:54:50.030Z,95.93
2022-11-26T05:55:50.002Z,96.14
2022-11-26T05:56:53.016Z,96.14
2022-11-26T05:57:50.969Z,96.44
2022-11-26T05:58:49.975Z,96.23
2022-11-26T05:59:49.946Z,96.14
2022-11-26T06:00:49.947Z,96.14
2022-11-26T06:01:49.968Z,96.14
2022-11-26T06:02:50.160Z,96.34
2022-11-26T06:03:50.008Z,96.23
2022-11-26T06:04:49.893Z,96.23
2022-11-26T06:05:49.892Z,96.03
2022-11-26T06:06:49.891Z,96.14
2022-11-26T06:07:49.957Z,96.23
2022-11-26T06:08:49.847Z,96.14
2022-11-26T06:09:49.839Z,96.23
2022-11-26T06:10:49.836Z,96.14
2022-11-26T06:11:49.815Z,96.14
2022-11-26T06:12:49.801Z,96.23
2022-11-26T06:13:49.795Z,96.34
2022-11-26T06:14:50.034Z,96.75
2022-11-26T06:15:49.785Z,96.23
2022-11-26T06:16:49.867Z,96.14
2022-11-26T06:17:49.749Z,96.23
2022-11-26T06:18:49.737Z,96.14
2022-11-26T06:19:49.731Z,95.93
2022-11-26T06:20:49.727Z,96.34
2022-11-26T06:21:49.705Z,96.03
2022-11-26T06:22:49.695Z,95.93
2022-11-26T06:23:55.864Z,96.03
2022-11-26T06:24:50.668Z,95.93
2022-11-26T06:25:49.679Z,96.03
2022-11-26T06:26:49.649Z,95.78
2022-11-26T06:27:49.640Z,95.93
2022-11-26T06:28:49.627Z,96.03
2022-11-26T06:29:49.640Z,96.03
2022-11-26T06:30:49.652Z,96.03
2022-11-26T06:31:49.667Z,96.03
2022-11-26T06:32:49.584Z,95.83
2022-11-26T06:33:49.598Z,95.93
2022-11-26T06:34:53.787Z,96.14
2022-11-26T06:35:49.563Z,96.14
2022-11-26T06:36:49.540Z,95.93
2022-11-26T06:37:49.534Z,96.03
2022-11-26T06:38:49.527Z,95.93
2022-11-26T06:39:49.511Z,95.89
2022-11-26T06:40:49.512Z,95.89
2022-11-26T06:41:49.508Z,95.93
2022-11-26T06:42:49.473Z,95.89
2022-11-26T06:43:49.470Z,96.09
2022-11-26T06:44:49.452Z,95.93
2022-11-26T06:45:49.506Z,95.89
2022-11-26T06:46:49.450Z,96.03
2022-11-26T06:47:49.424Z,95.78
2022-11-26T06:48:49.406Z,95.78
2022-11-26T06:49:49.398Z,95.83
2022-11-26T06:50:49.397Z,95.83
2022-11-26T06:51:49.381Z,95.93
2022-11-26T06:52:49.374Z,95.78
2022-11-26T06:53:49.389Z,95.78
2022-11-26T06:54:49.344Z,95.98
2022-11-26T06:55:49.381Z,96.09
2022-11-26T06:56:49.320Z,95.98
2022-11-26T06:57:49.321Z,96.34
2022-11-26T06:58:49.310Z,96.19
2022-11-26T06:59:49.296Z,96.19
2022-11-26T07:00:49.290Z,96.19
2022-11-26T07:01:49.426Z,96.09
2022-11-26T07:02:49.359Z,96.09
2022-11-26T07:03:49.251Z,96.30
2022-11-26T07:04:49.234Z,95.89
2022-11-26T07:05:49.238Z,95.57
2022-11-26T07:06:49.211Z,95.78
2022-11-26T07:07:49.291Z,95.98
2022-11-26T07:08:49.193Z,95.47
2022-11-26T07:09:49.185Z,95.47
2022-11-26T07:10:49.465Z,95.89
2022-11-26T07:11:49.157Z,95.89
2022-11-26T07:12:49.166Z,95.68
2022-11-26T07:13:49.139Z,95.68
2022-11-26T07:14:49.129Z,96.09
2022-11-26T07:15:49.179Z,96.19
2022-11-26T07:16:49.106Z,96.19
2022-11-26T07:17:49.095Z,95.68
2022-11-26T07:18:49.095Z,96.19
2022-11-26T07:19:49.073Z,95.78
2022-11-26T07:20:49.070Z,96.19
2022-11-26T07:21:49.058Z,95.98
2022-11-26T07:22:49.038Z,95.57
2022-11-26T07:23:49.114Z,96.03
2022-11-26T07:24:49.019Z,95.78
2022-11-26T07:25:49.016Z,96.19
2022-11-26T07:26:48.992Z,96.14
2022-11-26T07:27:48.992Z,96.34
2022-11-26T07:28:48.974Z,95.93
2022-11-26T07:29:48.971Z,95.72
2022-11-26T07:30:48.965Z,96.23
2022-11-26T07:31:48.980Z,96.23
2022-11-26T07:32:48.933Z,95.62
2022-11-26T07:33:48.941Z,96.23
2022-11-26T07:34:48.928Z,96.19
2022-11-26T07:35:48.910Z,96.14
2022-11-26T07:36:49.569Z,96.14
2022-11-26T07:37:48.882Z,95.98
2022-11-26T07:38:48.865Z,96.19
2022-11-26T07:39:48.856Z,96.19
2022-11-26T07:40:48.855Z,95.89
2022-11-26T07:41:48.833Z,95.68
2022-11-26T07:42:53.029Z,96.19
2022-11-26T07:43:48.815Z,96.19
2022-11-26T07:44:48.796Z,95.57
2022-11-26T07:45:48.847Z,95.89
2022-11-26T07:46:48.779Z,95.68
2022-11-26T07:47:48.769Z,95.78
2022-11-26T07:48:48.760Z,95.89
2022-11-26T07:49:48.748Z,95.68
2022-11-26T07:50:48.758Z,95.78
2022-11-26T07:51:48.722Z,95.89
2022-11-26T07:52:48.725Z,95.78
2022-11-26T07:53:48.699Z,95.98
2022-11-26T07:54:48.691Z,95.57
2022-11-26T07:55:48.698Z,95.57
2022-11-26T07:56:48.665Z,95.57
2022-11-26T07:57:48.659Z,95.57
2022-11-26T07:58:48.646Z,95.78
2022-11-26T07:59:48.639Z,95.37
2022-11-26T08:00:53.147Z,95.68
2022-11-26T08:01:49.639Z,95.64
2022-11-26T08:02:48.643Z,95.68
2022-11-26T08:03:48.597Z,95.68
2022-11-26T08:04:48.583Z,95.78
2022-11-26T08:05:48.583Z,95.94
2022-11-26T08:06:48.576Z,96.15
2022-11-26T08:07:48.644Z,95.94
2022-11-26T08:08:48.543Z,95.32
2022-11-26T08:09:48.529Z,95.43
2022-11-26T08:10:48.526Z,95.17
2022-11-26T08:11:48.510Z,95.57
2022-11-26T08:12:48.495Z,95.53
2022-11-26T08:13:48.512Z,95.74
2022-11-26T08:14:48.474Z,95.37
2022-11-26T08:15:48.493Z,95.64
2022-11-26T08:16:48.529Z,95.06
2022-11-26T08:17:48.453Z,95.02
2022-11-26T08:18:48.431Z,95.02
2022-11-26T08:19:48.425Z,94.71
2022-11-26T08:20:48.418Z,95.12
2022-11-26T08:21:48.403Z,95.02
2022-11-26T08:22:48.653Z,94.61
2022-11-26T08:23:48.381Z,94.92
2022-11-26T08:24:48.368Z,94.81
2022-11-26T08:26:14.122Z,94.51
2022-11-26T08:26:49.346Z,95.02
2022-11-26T08:27:48.337Z,94.61
2022-11-26T08:28:48.325Z,94.61
2022-11-26T08:29:48.316Z,94.81
2022-11-26T08:30:48.322Z,94.71
2022-11-26T08:31:48.351Z,94.71
2022-11-26T08:32:48.284Z,94.30
2022-11-26T08:33:48.294Z,94.61
2022-11-26T08:34:48.303Z,94.92
2022-11-26T08:36:06.061Z,94.51
2022-11-26T08:36:49.237Z,94.30
2022-11-26T08:37:48.255Z,94.30
2022-11-26T08:38:48.234Z,94.40
2022-11-26T08:39:48.211Z,94.51
2022-11-26T08:40:48.207Z,94.26
2022-11-26T08:41:52.004Z,94.36
2022-11-26T08:42:48.175Z,94.61
2022-11-26T08:44:49.154Z,94.61
2022-11-26T08:45:48.189Z,94.05
2022-11-26T08:46:48.128Z,94.15
2022-11-26T08:47:48.130Z,94.15
2022-11-26T08:48:48.111Z,94.15
2022-11-26T08:49:48.099Z,93.74
2022-11-26T08:50:48.151Z,93.44
2022-11-26T08:51:48.079Z,93.54
2022-11-26T08:52:48.066Z,93.27
2022-11-26T08:53:48.059Z,93.44
2022-11-26T08:54:48.394Z,93.44
2022-11-26T08:56:00.135Z,93.44
2022-11-26T08:56:49.021Z,93.33
2022-11-26T08:57:48.017Z,93.54
2022-11-26T08:58:48.000Z,93.54
2022-11-26T08:59:47.990Z,93.33
2022-11-26T09:00:48.039Z,92.72
2022-11-26T09:01:48.003Z,92.51
2022-11-26T09:02:48.020Z,92.82
2022-11-26T09:03:47.952Z,92.61
2022-11-26T09:04:47.934Z,92.61
2022-11-26T09:05:47.936Z,92.51
2022-11-26T09:06:47.921Z,92.21
2022-11-26T09:07:49.214Z,92.51
2022-11-26T09:08:47.926Z,92.21
2022-11-26T09:09:47.905Z,92.00
2022-11-26T09:10:47.909Z,92.21
2022-11-26T09:11:47.866Z,92.10
2022-11-26T09:12:47.869Z,92.21
2022-11-26T09:13:47.842Z,92.00
2022-11-26T09:14:47.867Z,92.00
2022-11-26T09:15:47.817Z,92.00
2022-11-26T09:16:47.998Z,91.90
2022-11-26T09:17:47.802Z,91.80
2022-11-26T09:18:47.788Z,92.00
2022-11-26T09:19:47.776Z,92.31
2022-11-26T09:20:49.207Z,92.31
2022-11-26T09:21:47.769Z,92.10
2022-11-26T09:22:47.743Z,92.31
2022-11-26T09:23:47.736Z,92.31
2022-11-26T09:24:47.723Z,91.80
2022-11-26T09:25:47.711Z,91.80
2022-11-26T09:26:47.731Z,91.90
2022-11-26T09:27:47.698Z,91.90
2022-11-26T09:28:47.744Z,91.80
2022-11-26T09:29:47.666Z,91.80
2022-11-26T09:30:47.655Z,92.00
2022-11-26T09:32:21.289Z,91.90
2022-11-26T09:32:48.708Z,91.80
2022-11-26T09:33:47.625Z,91.90
2022-11-26T09:34:47.641Z,91.90
2022-11-26T09:35:47.608Z,91.80
2022-11-26T09:36:47.602Z,91.69
2022-11-26T09:37:51.579Z,91.80
2022-11-26T09:38:49.243Z,91.90
2022-11-26T09:39:47.564Z,91.96
2022-11-26T09:40:47.573Z,91.75
2022-11-26T09:41:47.564Z,91.75
2022-11-26T09:42:47.557Z,91.18
2022-11-26T09:43:51.887Z,91.38
2022-11-26T09:44:48.512Z,91.28
2022-11-26T09:45:47.547Z,91.08
2022-11-26T09:47:10.416Z,91.18
2022-11-26T09:47:48.472Z,90.97
2022-11-26T09:48:47.464Z,90.97
2022-11-26T09:49:47.451Z,90.97
2022-11-26T09:50:47.439Z,90.97
2022-11-26T09:51:47.444Z,91.28
2022-11-26T09:52:47.421Z,91.08
2022-11-26T09:53:47.423Z,90.77
2022-11-26T09:54:47.397Z,90.87
2022-11-26T09:55:47.393Z,90.77
2022-11-26T09:56:47.391Z,90.83
2022-11-26T09:57:47.389Z,90.97
2022-11-26T09:58:47.468Z,90.77
2022-11-26T09:59:47.342Z,90.36
2022-11-26T10:00:47.397Z,90.67
2022-11-26T10:01:47.419Z,90.26
2022-11-26T10:02:47.312Z,90.56
2022-11-26T10:03:47.305Z,90.56
2022-11-26T10:04:47.293Z,90.87
2022-11-26T10:05:47.290Z,90.16
2022-11-26T10:06:47.278Z,90.16
2022-11-26T10:07:47.402Z,90.46
2022-11-26T10:08:47.248Z,90.56
2022-11-26T10:09:47.237Z,90.36
2022-11-26T10:10:47.241Z,90.16
2022-11-26T10:11:47.227Z,90.16
2022-11-26T10:13:11.172Z,90.05
2022-11-26T10:13:48.191Z,90.05
2022-11-26T10:14:47.199Z,90.26
2022-11-26T10:15:47.172Z,90.46
2022-11-26T10:16:47.218Z,90.46
2022-11-26T10:17:47.155Z,90.46
2022-11-26T10:18:47.142Z,90.36
2022-11-26T10:19:47.126Z,90.36
2022-11-26T10:20:47.118Z,90.46
2022-11-26T10:22:00.550Z,90.26
2022-11-26T10:22:51.544Z,90.26
2022-11-26T10:23:48.084Z,90.67
2022-11-26T10:24:47.078Z,90.16
2022-11-26T10:25:47.063Z,90.05
2022-11-26T10:26:47.066Z,90.16
2022-11-26T10:27:47.040Z,90.26
2022-11-26T10:28:47.039Z,90.16
2022-11-26T10:29:47.029Z,90.26
2022-11-26T10:30:47.032Z,90.56
2022-11-26T10:31:47.179Z,90.56
2022-11-26T10:32:46.985Z,90.77
2022-11-26T10:33:46.980Z,90.56
2022-11-26T10:34:46.973Z,90.36
2022-11-26T10:35:46.960Z,90.26
2022-11-26T10:36:46.955Z,90.16
2022-11-26T10:37:46.929Z,90.16
2022-11-26T10:38:46.923Z,91.18
2022-11-26T10:39:46.913Z,90.46
2022-11-26T10:40:46.903Z,90.16
2022-11-26T10:41:46.899Z,90.46
2022-11-26T10:42:46.890Z,90.16
2022-11-26T10:43:46.867Z,90.26
2022-11-26T10:44:46.866Z,90.16
2022-11-26T10:45:46.846Z,89.95
2022-11-26T10:46:46.961Z,90.46
2022-11-26T10:47:46.827Z,90.56
2022-11-26T10:48:46.822Z,90.77
2022-11-26T10:49:46.800Z,90.67
2022-11-26T10:50:48.049Z,90.77
2022-11-26T10:51:46.790Z,90.77
2022-11-26T10:52:46.791Z,90.77
2022-11-26T10:53:46.840Z,90.77
2022-11-26T10:54:46.775Z,90.97
2022-11-26T10:55:46.739Z,90.77
2022-11-26T10:56:46.728Z,90.87
2022-11-26T10:57:46.724Z,90.87
2022-11-26T10:58:46.744Z,90.87
2022-11-26T10:59:46.697Z,91.08
2022-11-26T11:00:46.721Z,90.97
2022-11-26T11:01:46.732Z,90.36
2022-11-26T11:02:46.694Z,90.87
2022-11-26T11:04:07.302Z,91.02
2022-11-26T11:04:47.949Z,91.08
2022-11-26T11:05:46.635Z,90.77
2022-11-26T11:06:46.624Z,90.97
2022-11-26T11:07:46.705Z,90.67
2022-11-26T11:08:46.597Z,91.08
2022-11-26T11:09:46.585Z,91.18
2022-11-26T11:10:46.578Z,90.87
2022-11-26T11:11:46.563Z,90.77
2022-11-26T11:12:46.566Z,90.97
2022-11-26T11:13:46.549Z,91.18
2022-11-26T11:14:47.089Z,90.77
2022-11-26T11:15:46.519Z,90.77
2022-11-26T11:16:46.549Z,90.87
2022-11-26T11:17:46.512Z,90.36
2022-11-26T11:18:46.527Z,90.71
2022-11-26T11:19:46.475Z,90.91
2022-11-26T11:20:46.467Z,90.97
2022-11-26T11:21:48.355Z,91.12
2022-11-26T11:22:46.454Z,91.18
2022-11-26T11:24:07.553Z,91.38
2022-11-26T11:24:47.424Z,91.28
2022-11-26T11:25:46.409Z,90.97
2022-11-26T11:26:46.401Z,90.97
2022-11-26T11:27:46.405Z,90.97
2022-11-26T11:28:46.378Z,90.97
2022-11-26T11:29:46.366Z,90.97
2022-11-26T11:30:46.361Z,90.97
2022-11-26T11:31:46.466Z,91.18
2022-11-26T11:32:46.347Z,90.77
2022-11-26T11:33:46.325Z,91.28
2022-11-26T11:34:46.335Z,91.08
2022-11-26T11:35:46.312Z,91.18
2022-11-26T11:36:46.290Z,91.08
2022-11-26T11:37:46.291Z,91.18
2022-11-26T11:38:46.269Z,91.08
2022-11-26T11:39:46.256Z,90.83
2022-11-26T11:40:46.250Z,91.28
2022-11-26T11:41:46.243Z,91.38
2022-11-26T11:42:46.237Z,91.28
2022-11-26T11:43:46.216Z,91.18
2022-11-26T11:44:46.214Z,90.77
2022-11-26T11:45:51.518Z,90.93
2022-11-26T11:46:47.185Z,90.93
2022-11-26T11:47:46.182Z,90.93
2022-11-26T11:48:46.163Z,91.35
2022-11-26T11:49:46.174Z,91.03
2022-11-26T11:50:46.170Z,90.62
2022-11-26T11:51:46.134Z,91.03
2022-11-26T11:52:46.136Z,90.73
2022-11-26T11:53:46.109Z,90.83
2022-11-26T11:54:46.102Z,91.14
2022-11-26T11:55:46.088Z,90.83
2022-11-26T11:56:46.137Z,91.03
2022-11-26T11:57:46.098Z,90.73
2022-11-26T11:58:46.058Z,90.83
2022-11-26T11:59:46.050Z,90.42
2022-11-26T12:00:46.043Z,90.32
2022-11-26T12:01:46.057Z,90.52
2022-11-26T12:02:46.022Z,90.52
2022-11-26T12:03:46.004Z,90.62
2022-11-26T12:04:46.082Z,90.28
2022-11-26T12:05:45.982Z,90.01
2022-11-26T12:06:46.005Z,90.58
2022-11-26T12:07:46.042Z,90.32
2022-11-26T12:08:45.952Z,90.42
2022-11-26T12:09:45.937Z,90.42
2022-11-26T12:10:45.934Z,90.42
2022-11-26T12:11:45.929Z,90.62
2022-11-26T12:12:45.917Z,90.07
2022-11-26T12:13:45.900Z,90.37
2022-11-26T12:14:46.153Z,89.97
2022-11-26T12:15:45.898Z,90.32
2022-11-26T12:16:45.949Z,90.11
2022-11-26T12:17:45.864Z,90.11
2022-11-26T12:18:45.849Z,89.76
2022-11-26T12:19:45.828Z,89.50
2022-11-26T12:20:45.821Z,89.76
2022-11-26T12:21:45.811Z,89.60
2022-11-26T12:22:45.827Z,89.25
2022-11-26T12:23:45.790Z,89.45
2022-11-26T12:24:45.779Z,89.15
2022-11-26T12:25:45.772Z,89.25
2022-11-26T12:26:45.773Z,89.45
2022-11-26T12:27:45.759Z,89.45
2022-11-26T12:28:51.043Z,89.25
2022-11-26T12:29:46.724Z,88.74
2022-11-26T12:30:45.715Z,89.45
2022-11-26T12:31:45.760Z,88.84
2022-11-26T12:32:46.710Z,88.94
2022-11-26T12:33:45.688Z,89.15
2022-11-26T12:34:45.675Z,89.15
2022-11-26T12:35:45.657Z,88.94
2022-11-26T12:36:45.653Z,88.84
2022-11-26T12:37:45.656Z,89.04
2022-11-26T12:38:45.643Z,89.36
2022-11-26T12:39:51.880Z,89.04
2022-11-26T12:40:46.603Z,88.74
2022-11-26T12:41:45.622Z,88.84
2022-11-26T12:42:45.617Z,88.84
2022-11-26T12:43:45.658Z,88.78
2022-11-26T12:44:45.572Z,88.88
2022-11-26T12:45:45.588Z,88.78
2022-11-26T12:46:46.114Z,89.19
2022-11-26T12:47:45.542Z,89.39
2022-11-26T12:48:45.522Z,89.19
2022-11-26T12:49:45.506Z,89.29
2022-11-26T12:50:45.512Z,89.39
2022-11-26T12:51:45.489Z,89.29
2022-11-26T12:52:45.492Z,89.39
2022-11-26T12:53:45.505Z,89.60
2022-11-26T12:54:45.481Z,89.29